メインページ
METAR-TAF:

METAR-TAF

空港 :

ワルシャワ, ポーランド

ワルシャワ・ショパン空港

緯度: 52-10N, 経度: 020-58E, 海抜: 106m

現時点の気象観測

当レポートは19分前の23:00(UTC)に作成
無風
気温 12°C
湿度 88%
気圧 1024 hPa
視程10km以上
1,500メートル以下は雲なし、積乱雲なし

METAR: EPWA 272300Z 00000KT CAVOK 12/10 Q1024 NOSIG

時間: 01:19 (23:19 UTC)

予報

当レポートは5時間49分前の17:30(UTC)に作成
予報は27日の 18時(UTC)から 28日の 18時(UTC)まで有効
の風 8kt
視程10km以上
1,500メートル以下は雲なし、積乱雲なし
28日の 03時(UTC)から 28日の 06時(UTC)まで徐々に
西の風 6kt

TAF: EPWA 271730Z 2718/2818 01008KT CAVOK BECMG 2803/2806 27006KT

4,000以上の空港の気象観測と天気予報(METAR報とTAF報)

利用可能な観測所は地図上に黄色い丸と赤い丸で示す。

丸の上にカーソルを重ねると観測所名を参照できる。

次にクリックすると気象観測と天気予報を参照できる。

マップの切り替え:黒色「×」印の緑ボタンをクリックして拡大、「-」印の緑ボタンをクリックして縮小、緑色の三角印をクリックして隣りの地図に切り替え


METAR-TAF: